Thunder radar more information blitzortung!


Radar de pluja more information rain snow radar


Visita la nostra xarxa de llocs de meteo:

Template documentation
and downloads

And another site



No particular awareness of the weather is required.    There are no Weather-warnings

Pagina Historial Weather Underground text

Diari Resum Setembre 28, 2017 Unitats:  Tant    Imperial   Mètric
« Previous Dia
SegĂźent Dia »
Diari Setmana Mensual Anual Personalitzada
  Maxima: Minima: Media:
Temperatura: 77.7 °F /  25.4 °C 59.5 °F /  15.3 °C 70.3 °F /  21.3 °C
Punt de rosada: 61.9 °F /  16.6 °C 55.8 °F /  13.2 °C 58.6 °F /  14.8 °C
Humitat: 88 % 54 % 68 %
Wind Speed: 10.4 mph /  16.7 km/h - 3.5 mph /  5.6 km/h
RĂ fegues de vent: 10.4 mph /  16.7 km/h - -
Vent:- - SSE
Pression baro: 30.4 in /  1028.0 hPa 30.2 in /  1022.9 hPa -
Precipitacions: 0 in /  0.0 mm    
Historical Graphs
 
 
Dades de taula per Setembre 28, 2017
Temps Temperatura Punt de rosada Pression baro Vent Wind Speed RĂ fegues de vent Humitat Rainfall Rate (Hourly)
00:03 63.9 °F /  17.7 °C 56.5 °F /  13.6 °C 30.3 in /  1024.9 hPa Calm     77 % 0 in /  0.0 mm
01:35 60.8 °F /  16.0 °C 56.7 °F /  13.7 °C 30.3 in /  1024.9 hPa Calm   2 mph /  3.2 km/h 86 % 0 in /  0.0 mm
01:45 60.3 °F /  15.7 °C 55.8 °F /  13.2 °C 30.3 in /  1024.9 hPa WSW 1 mph /  1.6 km/h 2 mph /  3.2 km/h 85 % 0 in /  0.0 mm
01:55 60.4 °F /  15.8 °C 56.1 °F /  13.4 °C 30.3 in /  1026.0 hPa Calm   2 mph /  3.2 km/h 86 % 0 in /  0.0 mm
02:05 60.8 °F /  16.0 °C 56.8 °F /  13.8 °C 30.3 in /  1026.0 hPa Calm     87 % 0 in /  0.0 mm
02:15 60.8 °F /  16.0 °C 56.8 °F /  13.8 °C 30.3 in /  1026.0 hPa NNE 1 mph /  1.6 km/h 2 mph /  3.2 km/h 87 % 0 in /  0.0 mm
02:25 60.4 °F /  15.8 °C 56.1 °F /  13.4 °C 30.3 in /  1024.9 hPa NE 1 mph /  1.6 km/h 2 mph /  3.2 km/h 86 % 0 in /  0.0 mm
02:35 60.1 °F /  15.6 °C 55.9 °F /  13.3 °C 30.3 in /  1024.9 hPa WSW 1 mph /  1.6 km/h 2 mph /  3.2 km/h 86 % 0 in /  0.0 mm
02:45 60.1 °F /  15.6 °C 56.1 °F /  13.4 °C 30.3 in /  1026.0 hPa Calm   1 mph /  1.6 km/h 87 % 0 in /  0.0 mm
02:55 60.1 °F /  15.6 °C 56.1 °F /  13.4 °C 30.3 in /  1026.0 hPa Calm     87 % 0 in /  0.0 mm
03:05 60.1 °F /  15.6 °C 56.5 °F /  13.6 °C 30.3 in /  1026.0 hPa Calm     88 % 0 in /  0.0 mm
03:15 60.1 °F /  15.6 °C 56.5 °F /  13.6 °C 30.3 in /  1026.0 hPa Calm     88 % 0 in /  0.0 mm
03:25 59.5 °F /  15.3 °C 55.8 °F /  13.2 °C 30.3 in /  1026.0 hPa WNW 1 mph /  1.6 km/h 2 mph /  3.2 km/h 87 % 0 in /  0.0 mm
03:35 60.1 °F /  15.6 °C 56.5 °F /  13.6 °C 30.3 in /  1026.0 hPa Calm   2 mph /  3.2 km/h 88 % 0 in /  0.0 mm
03:45 60.6 °F /  15.9 °C 57 °F /  13.9 °C 30.3 in /  1026.0 hPa WSW 1 mph /  1.6 km/h 2 mph /  3.2 km/h 88 % 0 in /  0.0 mm
03:55 61 °F /  16.1 °C 57 °F /  13.9 °C 30.3 in /  1026.0 hPa SW 2 mph /  3.2 km/h 2 mph /  3.2 km/h 87 % 0 in /  0.0 mm
04:05 61.3 °F /  16.3 °C 57.4 °F /  14.1 °C 30.3 in /  1026.0 hPa SW 1 mph /  1.6 km/h 2 mph /  3.2 km/h 87 % 0 in /  0.0 mm
04:15 61.7 °F /  16.5 °C 58.1 °F /  14.5 °C 30.3 in /  1026.0 hPa Calm   1 mph /  1.6 km/h 88 % 0 in /  0.0 mm
04:25 62.2 °F /  16.8 °C 58.3 °F /  14.6 °C 30.3 in /  1026.0 hPa Calm     87 % 0 in /  0.0 mm
04:35 62.4 °F /  16.9 °C 58.5 °F /  14.7 °C 30.3 in /  1026.0 hPa Calm   2 mph /  3.2 km/h 87 % 0 in /  0.0 mm
04:45 62.8 °F /  17.1 °C 58.5 °F /  14.7 °C 30.3 in /  1026.0 hPa Calm   2 mph /  3.2 km/h 86 % 0 in /  0.0 mm
04:55 63.1 °F /  17.3 °C 58.6 °F /  14.8 °C 30.3 in /  1026.0 hPa NE 2 mph /  3.2 km/h 2 mph /  3.2 km/h 85 % 0 in /  0.0 mm
05:05 63.3 °F /  17.4 °C 58.5 °F /  14.7 °C 30.3 in /  1026.0 hPa NE 1 mph /  1.6 km/h 1 mph /  1.6 km/h 84 % 0 in /  0.0 mm
05:15 64 °F /  17.8 °C 58.8 °F /  14.9 °C 30.3 in /  1027.0 hPa NE 2 mph /  3.2 km/h 3 mph /  4.8 km/h 83 % 0 in /  0.0 mm
05:25 64.6 °F /  18.1 °C 59 °F /  15.0 °C 30.3 in /  1027.0 hPa NE 1 mph /  1.6 km/h 2 mph /  3.2 km/h 82 % 0 in /  0.0 mm
05:35 64.8 °F /  18.2 °C 58.8 °F /  14.9 °C 30.3 in /  1027.0 hPa NNE 2 mph /  3.2 km/h 4 mph /  6.4 km/h 81 % 0 in /  0.0 mm
05:45 65.1 °F /  18.4 °C 58.8 °F /  14.9 °C 30.3 in /  1027.0 hPa NE 3 mph /  4.8 km/h 4 mph /  6.4 km/h 80 % 0 in /  0.0 mm
10:47 65.8 °F /  18.8 °C 59.2 °F /  15.1 °C 30.3 in /  1027.0 hPa ENE 3.5 mph /  5.6 km/h 3.5 mph /  5.6 km/h 79 % 0 in /  0.0 mm
10:52 66.2 °F /  19.0 °C 59.2 °F /  15.1 °C 30.3 in /  1027.0 hPa WNW 1.4 mph /  2.3 km/h 1.4 mph /  2.3 km/h 78 % 0 in /  0.0 mm
10:57 66.6 °F /  19.2 °C 59.5 °F /  15.3 °C 30.3 in /  1027.0 hPa ENE 2.3 mph /  3.7 km/h 2.3 mph /  3.7 km/h 78 % 0 in /  0.0 mm
11:02 66.7 °F /  19.3 °C 59.4 °F /  15.2 °C 30.4 in /  1028.0 hPa NNW 3.5 mph /  5.6 km/h 3.5 mph /  5.6 km/h 77 % 0 in /  0.0 mm
11:07 67.1 °F /  19.5 °C 59.5 °F /  15.3 °C 30.4 in /  1028.0 hPa NNE 2.3 mph /  3.7 km/h 2.3 mph /  3.7 km/h 77 % 0 in /  0.0 mm
11:12 67.3 °F /  19.6 °C 59.7 °F /  15.4 °C 30.4 in /  1028.0 hPa ENE 4.3 mph /  6.9 km/h 4.3 mph /  6.9 km/h 77 % 0 in /  0.0 mm
11:17 67.8 °F /  19.9 °C 60.1 °F /  15.6 °C 30.4 in /  1028.0 hPa ENE 3.5 mph /  5.6 km/h 3.5 mph /  5.6 km/h 76 % 0 in /  0.0 mm
11:19 68 °F /  20.0 °C 60.3 °F /  15.7 °C 30.4 in /  1028.0 hPa NE 4.6 mph /  7.4 km/h 4.6 mph /  7.4 km/h 76 % 0 in /  0.0 mm
11:24 68.9 °F /  20.5 °C 60.3 °F /  15.7 °C 30.4 in /  1028.0 hPa NNE 4.6 mph /  7.4 km/h 4.6 mph /  7.4 km/h 74 % 0 in /  0.0 mm
11:29 69.4 °F /  20.8 °C 60.8 °F /  16.0 °C 30.4 in /  1028.0 hPa NE 5.9 mph /  9.5 km/h 5.9 mph /  9.5 km/h 74 % 0 in /  0.0 mm
11:34 70.2 °F /  21.2 °C 61.5 °F /  16.4 °C 30.3 in /  1027.0 hPa NNE 4.6 mph /  7.4 km/h 4.6 mph /  7.4 km/h 74 % 0 in /  0.0 mm
11:39 70.5 °F /  21.4 °C 61.3 °F /  16.3 °C 30.3 in /  1027.0 hPa ENE 3.6 mph /  5.8 km/h 3.6 mph /  5.8 km/h 73 % 0 in /  0.0 mm
11:44 70.7 °F /  21.5 °C 61.2 °F /  16.2 °C 30.3 in /  1027.0 hPa East 2.6 mph /  4.2 km/h 2.6 mph /  4.2 km/h 72 % 0 in /  0.0 mm
11:54 72.1 °F /  22.3 °C 61.9 °F /  16.6 °C 30.3 in /  1027.0 hPa ESE 3.5 mph /  5.6 km/h 3.5 mph /  5.6 km/h 70 % 0 in /  0.0 mm
11:59 71.6 °F /  22.0 °C 61.3 °F /  16.3 °C 30.3 in /  1027.0 hPa ENE 4.6 mph /  7.4 km/h 4.6 mph /  7.4 km/h 70 % 0 in /  0.0 mm
12:04 71.8 °F /  22.1 °C 61.2 °F /  16.2 °C 30.3 in /  1027.0 hPa ESE 4.6 mph /  7.4 km/h 4.6 mph /  7.4 km/h 69 % 0 in /  0.0 mm
12:09 71.8 °F /  22.1 °C 61.2 °F /  16.2 °C 30.3 in /  1027.0 hPa SW 2.3 mph /  3.7 km/h 2.3 mph /  3.7 km/h 69 % 0 in /  0.0 mm
12:14 72.3 °F /  22.4 °C 61.2 °F /  16.2 °C 30.3 in /  1027.0 hPa ESE 3.5 mph /  5.6 km/h 3.5 mph /  5.6 km/h 68 % 0 in /  0.0 mm
12:19 72 °F /  22.2 °C 60.8 °F /  16.0 °C 30.3 in /  1027.0 hPa NNW 3.5 mph /  5.6 km/h 3.5 mph /  5.6 km/h 68 % 0 in /  0.0 mm
12:20 72 °F /  22.2 °C 60.8 °F /  16.0 °C 30.3 in /  1027.0 hPa NNW 2.3 mph /  3.7 km/h 2.3 mph /  3.7 km/h 68 % 0 in /  0.0 mm
12:25 72.5 °F /  22.5 °C 61 °F /  16.1 °C 30.3 in /  1027.0 hPa North 2.3 mph /  3.7 km/h 2.3 mph /  3.7 km/h 67 % 0 in /  0.0 mm
12:30 72.9 °F /  22.7 °C 61.3 °F /  16.3 °C 30.3 in /  1027.0 hPa West 2.4 mph /  3.9 km/h 2.4 mph /  3.9 km/h 67 % 0 in /  0.0 mm
12:35 73.9 °F /  23.3 °C 61.9 °F /  16.6 °C 30.3 in /  1026.0 hPa ESE 1.6 mph /  2.6 km/h   66 % 0 in /  0.0 mm
12:40 73.9 °F /  23.3 °C 61 °F /  16.1 °C 30.3 in /  1026.0 hPa ESE 5.8 mph /  9.3 km/h 5.8 mph /  9.3 km/h 64 % 0 in /  0.0 mm
12:45 73.6 °F /  23.1 °C 60.6 °F /  15.9 °C 30.3 in /  1026.0 hPa East 4.9 mph /  7.9 km/h 4.9 mph /  7.9 km/h 64 % 0 in /  0.0 mm
12:50 73.4 °F /  23.0 °C 60.4 °F /  15.8 °C 30.3 in /  1026.0 hPa SSE 4.6 mph /  7.4 km/h 4.6 mph /  7.4 km/h 64 % 0 in /  0.0 mm
12:55 74.5 °F /  23.6 °C 61.5 °F /  16.4 °C 30.3 in /  1026.0 hPa ENE 2.3 mph /  3.7 km/h 2.3 mph /  3.7 km/h 64 % 0 in /  0.0 mm
13:00 74.5 °F /  23.6 °C 61.2 °F /  16.2 °C 30.3 in /  1026.0 hPa East 3.5 mph /  5.6 km/h 3.5 mph /  5.6 km/h 63 % 0 in /  0.0 mm
13:05 74.8 °F /  23.8 °C 61.3 °F /  16.3 °C 30.3 in /  1024.9 hPa SSE 1.2 mph /  1.9 km/h 1.2 mph /  1.9 km/h 63 % 0 in /  0.0 mm
13:10 76.3 °F /  24.6 °C 61.9 °F /  16.6 °C 30.3 in /  1024.9 hPa SSE 2.3 mph /  3.7 km/h 2.3 mph /  3.7 km/h 61 % 0 in /  0.0 mm
13:15 75.7 °F /  24.3 °C 59.9 °F /  15.5 °C 30.3 in /  1024.9 hPa SSE 5.8 mph /  9.3 km/h 5.8 mph /  9.3 km/h 58 % 0 in /  0.0 mm
13:20 75.9 °F /  24.4 °C 61 °F /  16.1 °C 30.3 in /  1026.0 hPa South 2.3 mph /  3.7 km/h 2.3 mph /  3.7 km/h 60 % 0 in /  0.0 mm
13:25 76.6 °F /  24.8 °C 61.2 °F /  16.2 °C 30.3 in /  1026.0 hPa ENE 5.8 mph /  9.3 km/h 5.8 mph /  9.3 km/h 59 % 0 in /  0.0 mm
13:26 76.5 °F /  24.7 °C 61.2 °F /  16.2 °C 30.3 in /  1026.0 hPa East 5.8 mph /  9.3 km/h 5.8 mph /  9.3 km/h 59 % 0 in /  0.0 mm
13:31 76.1 °F /  24.5 °C 60.3 °F /  15.7 °C 30.3 in /  1026.0 hPa ENE 3.5 mph /  5.6 km/h 3.5 mph /  5.6 km/h 58 % 0 in /  0.0 mm
13:36 75.7 °F /  24.3 °C 59.4 °F /  15.2 °C 30.3 in /  1026.0 hPa ESE 4.6 mph /  7.4 km/h 4.7 mph /  7.6 km/h 57 % 0 in /  0.0 mm
13:41 75 °F /  23.9 °C 59.7 °F /  15.4 °C 30.3 in /  1026.0 hPa ESE 6 mph /  9.7 km/h 6 mph /  9.7 km/h 59 % 0 in /  0.0 mm
13:46 75.7 °F /  24.3 °C 59.4 °F /  15.2 °C 30.3 in /  1026.0 hPa East 4.9 mph /  7.9 km/h 5.9 mph /  9.5 km/h 57 % 0 in /  0.0 mm
13:51 75.6 °F /  24.2 °C 59.4 °F /  15.2 °C 30.3 in /  1026.0 hPa ESE 7.6 mph /  12.2 km/h 7.6 mph /  12.2 km/h 57 % 0 in /  0.0 mm
13:56 75.7 °F /  24.3 °C 59.4 °F /  15.2 °C 30.3 in /  1026.0 hPa East 6.2 mph /  10.0 km/h 6.2 mph /  10.0 km/h 57 % 0 in /  0.0 mm
14:01 76.3 °F /  24.6 °C 59.9 °F /  15.5 °C 30.3 in /  1026.0 hPa ENE 5.8 mph /  9.3 km/h 5.8 mph /  9.3 km/h 57 % 0 in /  0.0 mm
14:06 76.8 °F /  24.9 °C 59.9 °F /  15.5 °C 30.3 in /  1026.0 hPa ESE 6.9 mph /  11.1 km/h 6.9 mph /  11.1 km/h 56 % 0 in /  0.0 mm
14:11 75.6 °F /  24.2 °C 58.8 °F /  14.9 °C 30.3 in /  1026.0 hPa East 8.1 mph /  13.0 km/h 8.1 mph /  13.0 km/h 56 % 0 in /  0.0 mm
14:16 75.7 °F /  24.3 °C 58.8 °F /  14.9 °C 30.3 in /  1026.0 hPa ESE 10.4 mph /  16.7 km/h 10.4 mph /  16.7 km/h 56 % 0 in /  0.0 mm
14:21 75.7 °F /  24.3 °C 58.5 °F /  14.7 °C 30.3 in /  1026.0 hPa ESE 10.4 mph /  16.7 km/h 10.4 mph /  16.7 km/h 55 % 0 in /  0.0 mm
14:26 75.7 °F /  24.3 °C 58.8 °F /  14.9 °C 30.3 in /  1026.0 hPa East 8.1 mph /  13.0 km/h 8.1 mph /  13.0 km/h 56 % 0 in /  0.0 mm
14:36 76.3 °F /  24.6 °C 59.4 °F /  15.2 °C 30.3 in /  1026.0 hPa ESE 6.9 mph /  11.1 km/h 6.9 mph /  11.1 km/h 56 % 0 in /  0.0 mm
14:41 75.7 °F /  24.3 °C 59.4 °F /  15.2 °C 30.3 in /  1026.0 hPa ESE 6.4 mph /  10.3 km/h 6.4 mph /  10.3 km/h 57 % 0 in /  0.0 mm
14:46 76.5 °F /  24.7 °C 60.1 °F /  15.6 °C 30.3 in /  1024.9 hPa SSE 8.1 mph /  13.0 km/h 8.1 mph /  13.0 km/h 57 % 0 in /  0.0 mm
14:51 77.2 °F /  25.1 °C 60.3 °F /  15.7 °C 30.3 in /  1024.9 hPa SSE 3.5 mph /  5.6 km/h 3.5 mph /  5.6 km/h 56 % 0 in /  0.0 mm
14:56 77.4 °F /  25.2 °C 60.4 °F /  15.8 °C 30.3 in /  1024.9 hPa East 6.9 mph /  11.1 km/h 6.9 mph /  11.1 km/h 56 % 0 in /  0.0 mm
15:01 76.6 °F /  24.8 °C 60.3 °F /  15.7 °C 30.3 in /  1024.9 hPa South 8.1 mph /  13.0 km/h 8.1 mph /  13.0 km/h 57 % 0 in /  0.0 mm
15:06 76.8 °F /  24.9 °C 59.9 °F /  15.5 °C 30.3 in /  1024.9 hPa SSW 4.6 mph /  7.4 km/h 4.6 mph /  7.4 km/h 56 % 0 in /  0.0 mm
15:11 76.6 °F /  24.8 °C 60.3 °F /  15.7 °C 30.3 in /  1024.9 hPa SW 7.8 mph /  12.6 km/h 7.8 mph /  12.6 km/h 57 % 0 in /  0.0 mm
15:16 76.3 °F /  24.6 °C 59.9 °F /  15.5 °C 30.3 in /  1024.9 hPa ENE 4 mph /  6.4 km/h 4 mph /  6.4 km/h 57 % 0 in /  0.0 mm
15:21 75.7 °F /  24.3 °C 59.4 °F /  15.2 °C 30.3 in /  1024.9 hPa ESE 5.9 mph /  9.5 km/h 5.9 mph /  9.5 km/h 57 % 0 in /  0.0 mm
15:26 75.7 °F /  24.3 °C 59.9 °F /  15.5 °C 30.3 in /  1024.9 hPa ESE 6 mph /  9.7 km/h 6 mph /  9.7 km/h 58 % 0 in /  0.0 mm
15:31 75.7 °F /  24.3 °C 59.4 °F /  15.2 °C 30.3 in /  1024.9 hPa ESE 6.9 mph /  11.1 km/h 6.9 mph /  11.1 km/h 57 % 0 in /  0.0 mm
15:36 74.8 °F /  23.8 °C 59.5 °F /  15.3 °C 30.3 in /  1024.9 hPa ESE 7.1 mph /  11.4 km/h 7.1 mph /  11.4 km/h 59 % 0 in /  0.0 mm
15:41 74.5 °F /  23.6 °C 59.2 °F /  15.1 °C 30.3 in /  1024.9 hPa ESE 5.8 mph /  9.3 km/h 5.8 mph /  9.3 km/h 59 % 0 in /  0.0 mm
15:46 74.3 °F /  23.5 °C 59 °F /  15.0 °C 30.2 in /  1023.9 hPa ESE 5.8 mph /  9.3 km/h 5.8 mph /  9.3 km/h 59 % 0 in /  0.0 mm
15:51 74.7 °F /  23.7 °C 59.4 °F /  15.2 °C 30.2 in /  1023.9 hPa ESE 3.5 mph /  5.6 km/h 3.5 mph /  5.6 km/h 59 % 0 in /  0.0 mm
15:56 74.3 °F /  23.5 °C 59 °F /  15.0 °C 30.2 in /  1023.9 hPa East 8.1 mph /  13.0 km/h 8.1 mph /  13.0 km/h 59 % 0 in /  0.0 mm
16:01 74.7 °F /  23.7 °C 59.9 °F /  15.5 °C 30.2 in /  1023.9 hPa SSW 3.5 mph /  5.6 km/h 3.5 mph /  5.6 km/h 60 % 0 in /  0.0 mm
16:06 74.5 °F /  23.6 °C 59.7 °F /  15.4 °C 30.2 in /  1023.9 hPa ESE 5.8 mph /  9.3 km/h 5.8 mph /  9.3 km/h 60 % 0 in /  0.0 mm
16:11 74.1 °F /  23.4 °C 59.4 °F /  15.2 °C 30.2 in /  1023.9 hPa East 5.8 mph /  9.3 km/h 5.8 mph /  9.3 km/h 60 % 0 in /  0.0 mm
16:16 74.1 °F /  23.4 °C 59.4 °F /  15.2 °C 30.2 in /  1023.9 hPa ESE 5.8 mph /  9.3 km/h 5.8 mph /  9.3 km/h 60 % 0 in /  0.0 mm
16:21 74.3 °F /  23.5 °C 59.5 °F /  15.3 °C 30.2 in /  1023.9 hPa East 4.7 mph /  7.6 km/h 4.7 mph /  7.6 km/h 60 % 0 in /  0.0 mm
16:26 73.9 °F /  23.3 °C 59.2 °F /  15.1 °C 30.2 in /  1023.9 hPa East 4.6 mph /  7.4 km/h 4.6 mph /  7.4 km/h 60 % 0 in /  0.0 mm
16:31 73.9 °F /  23.3 °C 59.2 °F /  15.1 °C 30.3 in /  1024.9 hPa East 8.1 mph /  13.0 km/h 8.1 mph /  13.0 km/h 60 % 0 in /  0.0 mm
16:36 73.9 °F /  23.3 °C 59.2 °F /  15.1 °C 30.3 in /  1024.9 hPa ESE 5.9 mph /  9.5 km/h 5.9 mph /  9.5 km/h 60 % 0 in /  0.0 mm
16:41 73.9 °F /  23.3 °C 59.2 °F /  15.1 °C 30.3 in /  1024.9 hPa ESE 6.9 mph /  11.1 km/h 6.9 mph /  11.1 km/h 60 % 0 in /  0.0 mm
16:46 73.8 °F /  23.2 °C 59 °F /  15.0 °C 30.2 in /  1023.9 hPa SE 8.1 mph /  13.0 km/h 8.1 mph /  13.0 km/h 60 % 0 in /  0.0 mm
16:51 74.3 °F /  23.5 °C 59.5 °F /  15.3 °C 30.2 in /  1023.9 hPa South 4.6 mph /  7.4 km/h 4.6 mph /  7.4 km/h 60 % 0 in /  0.0 mm
16:56 74.7 °F /  23.7 °C 59.4 °F /  15.2 °C 30.2 in /  1023.9 hPa South 4.6 mph /  7.4 km/h 4.6 mph /  7.4 km/h 59 % 0 in /  0.0 mm
17:01 74.7 °F /  23.7 °C 59.4 °F /  15.2 °C 30.2 in /  1023.9 hPa South 3.5 mph /  5.6 km/h 3.5 mph /  5.6 km/h 59 % 0 in /  0.0 mm
17:06 74.5 °F /  23.6 °C 59.2 °F /  15.1 °C 30.2 in /  1023.9 hPa East 3.5 mph /  5.6 km/h 3.5 mph /  5.6 km/h 59 % 0 in /  0.0 mm
17:07 74.5 °F /  23.6 °C 59.2 °F /  15.1 °C 30.2 in /  1023.9 hPa ESE 3.8 mph /  6.1 km/h 3.8 mph /  6.1 km/h 59 % 0 in /  0.0 mm
17:12 74.3 °F /  23.5 °C 59 °F /  15.0 °C 30.2 in /  1023.9 hPa ENE 4.6 mph /  7.4 km/h 4.6 mph /  7.4 km/h 59 % 0 in /  0.0 mm
17:17 74.5 °F /  23.6 °C 58.6 °F /  14.8 °C 30.2 in /  1023.9 hPa ESE 4.6 mph /  7.4 km/h 4.6 mph /  7.4 km/h 58 % 0 in /  0.0 mm
17:22 75 °F /  23.9 °C 59.7 °F /  15.4 °C 30.2 in /  1023.9 hPa SE 4.6 mph /  7.4 km/h 4.6 mph /  7.4 km/h 59 % 0 in /  0.0 mm
17:27 75.6 °F /  24.2 °C 59.4 °F /  15.2 °C 30.2 in /  1023.9 hPa South 4.6 mph /  7.4 km/h 4.6 mph /  7.4 km/h 57 % 0 in /  0.0 mm
17:32 75.7 °F /  24.3 °C 59.4 °F /  15.2 °C 30.2 in /  1023.9 hPa North 2.3 mph /  3.7 km/h 2.3 mph /  3.7 km/h 57 % 0 in /  0.0 mm
17:37 76.3 °F /  24.6 °C 59.9 °F /  15.5 °C 30.2 in /  1023.9 hPa WSW 3.6 mph /  5.8 km/h 3.6 mph /  5.8 km/h 57 % 0 in /  0.0 mm
17:42 76.8 °F /  24.9 °C 59.9 °F /  15.5 °C 30.2 in /  1023.9 hPa SW 4.6 mph /  7.4 km/h 4.6 mph /  7.4 km/h 56 % 0 in /  0.0 mm
17:47 77.5 °F /  25.3 °C 59.5 °F /  15.3 °C 30.2 in /  1023.9 hPa SSW 4.6 mph /  7.4 km/h 4.6 mph /  7.4 km/h 54 % 0 in /  0.0 mm
17:52 77.7 °F /  25.4 °C 59.7 °F /  15.4 °C 30.2 in /  1023.9 hPa SSW 4.6 mph /  7.4 km/h 4.6 mph /  7.4 km/h 54 % 0 in /  0.0 mm
17:57 77.2 °F /  25.1 °C 59.2 °F /  15.1 °C 30.2 in /  1023.9 hPa SSW 6.9 mph /  11.1 km/h 6.9 mph /  11.1 km/h 54 % 0 in /  0.0 mm
18:02 76.5 °F /  24.7 °C 59.2 °F /  15.1 °C 30.2 in /  1023.9 hPa SW 4.6 mph /  7.4 km/h 4.6 mph /  7.4 km/h 55 % 0 in /  0.0 mm
18:07 76.8 °F /  24.9 °C 58.8 °F /  14.9 °C 30.2 in /  1023.9 hPa West 4.6 mph /  7.4 km/h 4.6 mph /  7.4 km/h 54 % 0 in /  0.0 mm
18:12 76.8 °F /  24.9 °C 58.8 °F /  14.9 °C 30.2 in /  1023.9 hPa South 2.6 mph /  4.2 km/h 2.6 mph /  4.2 km/h 54 % 0 in /  0.0 mm
18:17 76.8 °F /  24.9 °C 58.8 °F /  14.9 °C 30.2 in /  1023.9 hPa SSW 4.6 mph /  7.4 km/h 4.6 mph /  7.4 km/h 54 % 0 in /  0.0 mm
18:22 76.5 °F /  24.7 °C 58.6 °F /  14.8 °C 30.2 in /  1023.9 hPa SW 9.2 mph /  14.8 km/h 9.2 mph /  14.8 km/h 54 % 0 in /  0.0 mm
18:27 76.3 °F /  24.6 °C 58.5 °F /  14.7 °C 30.2 in /  1023.9 hPa SW 5.8 mph /  9.3 km/h 5.8 mph /  9.3 km/h 54 % 0 in /  0.0 mm
18:32 76.1 °F /  24.5 °C 58.3 °F /  14.6 °C 30.2 in /  1023.9 hPa SW 4.6 mph /  7.4 km/h 4.6 mph /  7.4 km/h 54 % 0 in /  0.0 mm
18:37 75.9 °F /  24.4 °C 58.1 °F /  14.5 °C 30.2 in /  1023.9 hPa SSW 5.8 mph /  9.3 km/h 5.8 mph /  9.3 km/h 54 % 0 in /  0.0 mm
18:42 75.6 °F /  24.2 °C 58.3 °F /  14.6 °C 30.2 in /  1023.9 hPa SW 5.8 mph /  9.3 km/h 5.8 mph /  9.3 km/h 55 % 0 in /  0.0 mm
18:47 74.8 °F /  23.8 °C 58.1 °F /  14.5 °C 30.2 in /  1023.9 hPa SW 4.6 mph /  7.4 km/h 4.6 mph /  7.4 km/h 56 % 0 in /  0.0 mm
18:52 74.8 °F /  23.8 °C 58.1 °F /  14.5 °C 30.2 in /  1023.9 hPa SSW 4.6 mph /  7.4 km/h 4.6 mph /  7.4 km/h 56 % 0 in /  0.0 mm
18:57 74.7 °F /  23.7 °C 57.9 °F /  14.4 °C 30.2 in /  1023.9 hPa SSE 3.5 mph /  5.6 km/h 3.5 mph /  5.6 km/h 56 % 0 in /  0.0 mm
19:02 74.3 °F /  23.5 °C 57.6 °F /  14.2 °C 30.2 in /  1023.9 hPa SW 5.8 mph /  9.3 km/h 5.8 mph /  9.3 km/h 56 % 0 in /  0.0 mm
19:07 73.8 °F /  23.2 °C 57.6 °F /  14.2 °C 30.2 in /  1023.9 hPa WSW 3.5 mph /  5.6 km/h 3.5 mph /  5.6 km/h 57 % 0 in /  0.0 mm
19:12 73.2 °F /  22.9 °C 57 °F /  13.9 °C 30.2 in /  1023.9 hPa SW 3.5 mph /  5.6 km/h 3.5 mph /  5.6 km/h 57 % 0 in /  0.0 mm
19:17 72.9 °F /  22.7 °C 56.7 °F /  13.7 °C 30.2 in /  1023.9 hPa SW 4.7 mph /  7.6 km/h 4.7 mph /  7.6 km/h 57 % 0 in /  0.0 mm
19:22 72.3 °F /  22.4 °C 56.7 °F /  13.7 °C 30.2 in /  1023.9 hPa South 5.8 mph /  9.3 km/h 5.8 mph /  9.3 km/h 58 % 0 in /  0.0 mm
19:27 72 °F /  22.2 °C 56.5 °F /  13.6 °C 30.2 in /  1023.9 hPa SW 5.9 mph /  9.5 km/h 5.9 mph /  9.5 km/h 58 % 0 in /  0.0 mm
19:29 71.8 °F /  22.1 °C 56.7 °F /  13.7 °C 30.2 in /  1023.9 hPa SW 6.9 mph /  11.1 km/h 6.9 mph /  11.1 km/h 59 % 0 in /  0.0 mm
19:34 71.4 °F /  21.9 °C 56.8 °F /  13.8 °C 30.2 in /  1022.9 hPa WSW 5.9 mph /  9.5 km/h 5.9 mph /  9.5 km/h 60 % 0 in /  0.0 mm
19:39 71.1 °F /  21.7 °C 56.8 °F /  13.8 °C 30.2 in /  1022.9 hPa SSW 4.6 mph /  7.4 km/h 4.6 mph /  7.4 km/h 61 % 0 in /  0.0 mm
19:44 70.7 °F /  21.5 °C 56.7 °F /  13.7 °C 30.2 in /  1022.9 hPa South 4 mph /  6.4 km/h 4 mph /  6.4 km/h 61 % 0 in /  0.0 mm
19:49 70.3 °F /  21.3 °C 56.7 °F /  13.7 °C 30.2 in /  1023.9 hPa SW 4.6 mph /  7.4 km/h 4.6 mph /  7.4 km/h 62 % 0 in /  0.0 mm
19:54 70.2 °F /  21.2 °C 57 °F /  13.9 °C 30.2 in /  1023.9 hPa SW 4.6 mph /  7.4 km/h 4.6 mph /  7.4 km/h 63 % 0 in /  0.0 mm
19:59 69.8 °F /  21.0 °C 56.7 °F /  13.7 °C 30.2 in /  1023.9 hPa SW 6.9 mph /  11.1 km/h 6.9 mph /  11.1 km/h 63 % 0 in /  0.0 mm
20:04 69.6 °F /  20.9 °C 56.8 °F /  13.8 °C 30.2 in /  1022.9 hPa SSW 3.5 mph /  5.6 km/h 3.5 mph /  5.6 km/h 64 % 0 in /  0.0 mm
20:09 69.4 °F /  20.8 °C 57.2 °F /  14.0 °C 30.2 in /  1022.9 hPa WSW 4.6 mph /  7.4 km/h 4.6 mph /  7.4 km/h 65 % 0 in /  0.0 mm
20:14 69.3 °F /  20.7 °C 57 °F /  13.9 °C 30.2 in /  1022.9 hPa SW 4.6 mph /  7.4 km/h 4.6 mph /  7.4 km/h 65 % 0 in /  0.0 mm
20:19 69.1 °F /  20.6 °C 57.2 °F /  14.0 °C 30.2 in /  1022.9 hPa SW 3.5 mph /  5.6 km/h 3.5 mph /  5.6 km/h 66 % 0 in /  0.0 mm
20:24 68.9 °F /  20.5 °C 57 °F /  13.9 °C 30.2 in /  1022.9 hPa West 3.5 mph /  5.6 km/h 3.5 mph /  5.6 km/h 66 % 0 in /  0.0 mm
20:25 68.9 °F /  20.5 °C 57 °F /  13.9 °C 30.2 in /  1022.9 hPa WSW 3.5 mph /  5.6 km/h 3.5 mph /  5.6 km/h 66 % 0 in /  0.0 mm
20:30 68.7 °F /  20.4 °C 57.4 °F /  14.1 °C 30.2 in /  1022.9 hPa SW 2.4 mph /  3.9 km/h 2.4 mph /  3.9 km/h 67 % 0 in /  0.0 mm
20:35 68.5 °F /  20.3 °C 57 °F /  13.9 °C 30.2 in /  1022.9 hPa SW 2.4 mph /  3.9 km/h 2.6 mph /  4.2 km/h 67 % 0 in /  0.0 mm
20:40 68.4 °F /  20.2 °C 57.4 °F /  14.1 °C 30.2 in /  1022.9 hPa SW 3.5 mph /  5.6 km/h 3.5 mph /  5.6 km/h 68 % 0 in /  0.0 mm
20:45 68.2 °F /  20.1 °C 57.2 °F /  14.0 °C 30.2 in /  1022.9 hPa South 5.8 mph /  9.3 km/h 5.8 mph /  9.3 km/h 68 % 0 in /  0.0 mm
20:50 68 °F /  20.0 °C 57.4 °F /  14.1 °C 30.2 in /  1022.9 hPa SSW 3.5 mph /  5.6 km/h 3.5 mph /  5.6 km/h 69 % 0 in /  0.0 mm
20:55 68 °F /  20.0 °C 57.4 °F /  14.1 °C 30.2 in /  1022.9 hPa SW 3.5 mph /  5.6 km/h 3.5 mph /  5.6 km/h 69 % 0 in /  0.0 mm
21:00 67.8 °F /  19.9 °C 58.1 °F /  14.5 °C 30.2 in /  1022.9 hPa WSW 2.4 mph /  3.9 km/h 2.4 mph /  3.9 km/h 71 % 0 in /  0.0 mm
21:05 67.6 °F /  19.8 °C 57.9 °F /  14.4 °C 30.2 in /  1023.9 hPa SSW 3.5 mph /  5.6 km/h 3.5 mph /  5.6 km/h 71 % 0 in /  0.0 mm
21:10 67.6 °F /  19.8 °C 57.9 °F /  14.4 °C 30.2 in /  1023.9 hPa WSW 2.3 mph /  3.7 km/h 2.6 mph /  4.2 km/h 71 % 0 in /  0.0 mm
21:15 67.5 °F /  19.7 °C 58.1 °F /  14.5 °C 30.2 in /  1023.9 hPa SW 3.1 mph /  5.0 km/h 3.1 mph /  5.0 km/h 72 % 0 in /  0.0 mm
21:20 67.3 °F /  19.6 °C 57.9 °F /  14.4 °C 30.2 in /  1023.9 hPa SW 2.6 mph /  4.2 km/h 2.6 mph /  4.2 km/h 72 % 0 in /  0.0 mm
21:25 67.3 °F /  19.6 °C 57.9 °F /  14.4 °C 30.2 in /  1023.9 hPa SW 2.4 mph /  3.9 km/h 2.4 mph /  3.9 km/h 72 % 0 in /  0.0 mm
21:30 67.1 °F /  19.5 °C 58.3 °F /  14.6 °C 30.2 in /  1023.9 hPa SW 2 mph /  3.2 km/h 2 mph /  3.2 km/h 73 % 0 in /  0.0 mm
21:35 67.1 °F /  19.5 °C 58.3 °F /  14.6 °C 30.2 in /  1023.9 hPa WSW 1.2 mph /  1.9 km/h 1.2 mph /  1.9 km/h 73 % 0 in /  0.0 mm
21:40 66.9 °F /  19.4 °C 57.9 °F /  14.4 °C 30.2 in /  1023.9 hPa Calm     73 % 0 in /  0.0 mm
21:45 66.7 °F /  19.3 °C 57.7 °F /  14.3 °C 30.2 in /  1023.9 hPa Calm     73 % 0 in /  0.0 mm
21:50 66.7 °F /  19.3 °C 58.3 °F /  14.6 °C 30.3 in /  1024.9 hPa Calm     74 % 0 in /  0.0 mm
21:55 66.6 °F /  19.2 °C 57.9 °F /  14.4 °C 30.3 in /  1024.9 hPa NW 0.9 mph /  1.4 km/h   74 % 0 in /  0.0 mm
22:00 66.4 °F /  19.1 °C 57.7 °F /  14.3 °C 30.3 in /  1024.9 hPa Calm     74 % 0 in /  0.0 mm
22:05 66.2 °F /  19.0 °C 57.7 °F /  14.3 °C 30.3 in /  1024.9 hPa NNW 1.2 mph /  1.9 km/h 1.2 mph /  1.9 km/h 74 % 0 in /  0.0 mm
22:10 66.2 °F /  19.0 °C 57.7 °F /  14.3 °C 30.3 in /  1024.9 hPa Calm     74 % 0 in /  0.0 mm
22:15 66.2 °F /  19.0 °C 57.7 °F /  14.3 °C 30.3 in /  1024.9 hPa WNW 1.6 mph /  2.6 km/h   74 % 0 in /  0.0 mm
22:20 66.2 °F /  19.0 °C 57.7 °F /  14.3 °C 30.3 in /  1024.9 hPa West 1.2 mph /  1.9 km/h 1.4 mph /  2.3 km/h 74 % 0 in /  0.0 mm
22:25 66 °F /  18.9 °C 58.3 °F /  14.6 °C 30.3 in /  1024.9 hPa West 0.9 mph /  1.4 km/h   76 % 0 in /  0.0 mm
22:30 66 °F /  18.9 °C 58.3 °F /  14.6 °C 30.3 in /  1024.9 hPa Calm     76 % 0 in /  0.0 mm
22:35 65.8 °F /  18.8 °C 58.1 °F /  14.5 °C 30.3 in /  1026.0 hPa Calm     76 % 0 in /  0.0 mm
22:40 65.7 °F /  18.7 °C 57.9 °F /  14.4 °C 30.3 in /  1026.0 hPa Calm     76 % 0 in /  0.0 mm
22:45 65.5 °F /  18.6 °C 57.7 °F /  14.3 °C 30.3 in /  1026.0 hPa Calm     76 % 0 in /  0.0 mm
22:50 65.3 °F /  18.5 °C 57.9 °F /  14.4 °C 30.3 in /  1026.0 hPa Calm     77 % 0 in /  0.0 mm
22:55 65.1 °F /  18.4 °C 57.7 °F /  14.3 °C 30.3 in /  1026.0 hPa Calm     77 % 0 in /  0.0 mm
23:00 64.9 °F /  18.3 °C 57.6 °F /  14.2 °C 30.3 in /  1026.0 hPa West 1.2 mph /  1.9 km/h 1.2 mph /  1.9 km/h 77 % 0 in /  0.0 mm
23:06 64.8 °F /  18.2 °C 57.4 °F /  14.1 °C 30.3 in /  1026.0 hPa West 1.2 mph /  1.9 km/h 1.2 mph /  1.9 km/h 77 % 0 in /  0.0 mm
23:11 64.8 °F /  18.2 °C 57.4 °F /  14.1 °C 30.3 in /  1026.0 hPa West 0.9 mph /  1.4 km/h   77 % 0 in /  0.0 mm
23:16 64.6 °F /  18.1 °C 57.2 °F /  14.0 °C 30.3 in /  1026.0 hPa West 1.2 mph /  1.9 km/h 1.2 mph /  1.9 km/h 77 % 0 in /  0.0 mm
23:21 64.4 °F /  18.0 °C 57 °F /  13.9 °C 30.3 in /  1026.0 hPa West 1.2 mph /  1.9 km/h 1.2 mph /  1.9 km/h 77 % 0 in /  0.0 mm
23:26 64.4 °F /  18.0 °C 57.4 °F /  14.1 °C 30.3 in /  1026.0 hPa Calm     78 % 0 in /  0.0 mm
23:31 64.4 °F /  18.0 °C 57.4 °F /  14.1 °C 30.3 in /  1026.0 hPa Calm     78 % 0 in /  0.0 mm
23:36 64.2 °F /  17.9 °C 57.2 °F /  14.0 °C 30.3 in /  1026.0 hPa Calm     78 % 0 in /  0.0 mm
23:41 64.2 °F /  17.9 °C 57.2 °F /  14.0 °C 30.3 in /  1026.0 hPa Calm     78 % 0 in /  0.0 mm
23:46 64.2 °F /  17.9 °C 57.2 °F /  14.0 °C 30.3 in /  1026.0 hPa Calm     78 % 0 in /  0.0 mm
23:51 64 °F /  17.8 °C 57.4 °F /  14.1 °C 30.3 in /  1026.0 hPa Calm     79 % 0 in /  0.0 mm
23:56 63.9 °F /  17.7 °C 57.2 °F /  14.0 °C 30.3 in /  1026.0 hPa NNW 1.4 mph /  2.3 km/h 1.4 mph /  2.3 km/h 79 % 0 in /  0.0 mm
Meteo Sesrovires
Elogis d' Weather Underground - 3.5 mb

Guio original per  Jim McMurry - jmcmurry@mwt.net Adaptat per a la plantilla per  Wim van der Kuil - Leuven-Template.eu

Trobareu la nostra informacio del temps tambe a:

Weather Underground

AWEKAS